Wetterdaten: Woche 17.07.17 - 23.07.17 (KW29)
Datum Zeit Temp. I. Temp. A. Feuchte I. Feuchte A. Luftdruck Regen Wind Richtung Sonnenschein UV Solar Taupunkt Windchill Windben
17.07.2017 00:00 24,8 C 16,8 C 48 % 78 % 1021,7 hPa 0,0 l/m 0,0 km/h (0 Bft) N 0,00 h 0,0 UV-I 0 W/m 12,9 C 16,8 C 0,0 km/h (0 Bft)
17.07.2017 01:00 24,7 C 16,2 C 49 % 82 % 1021,4 hPa 0,0 l/m 0,0 km/h (0 Bft) N 0,00 h 0,0 UV-I 0 W/m 13,2 C 16,2 C 0,0 km/h (0 Bft)
17.07.2017 02:00 24,6 C 16,1 C 49 % 83 % 1021,1 hPa 0,0 l/m 0,0 km/h (0 Bft) N 0,00 h 0,0 UV-I 0 W/m 13,1 C 16,1 C 0,0 km/h (0 Bft)
17.07.2017 03:00 24,5 C 16,0 C 49 % 83 % 1020,9 hPa 0,0 l/m 0,0 km/h (0 Bft) N 0,00 h 0,0 UV-I 0 W/m 13,2 C 16,0 C 0,0 km/h (0 Bft)
17.07.2017 04:00 24,5 C 16,1 C 50 % 83 % 1020,6 hPa 0,0 l/m 0,0 km/h (0 Bft) N 0,00 h 0,0 UV-I 0 W/m 13,2 C 16,1 C 0,0 km/h (0 Bft)
17.07.2017 05:00 24,4 C 15,9 C 50 % 83 % 1020,6 hPa 0,0 l/m 0,0 km/h (0 Bft) N 0,00 h 0,0 UV-I 13 W/m 13,1 C 15,9 C 0,0 km/h (0 Bft)
17.07.2017 06:00 24,4 C 16,0 C 50 % 85 % 1020,7 hPa 0,0 l/m 0,0 km/h (0 Bft) N 0,00 h 0,0 UV-I 30 W/m 13,4 C 16,0 C 0,0 km/h (0 Bft)
17.07.2017 07:00 24,6 C 16,4 C 51 % 81 % 1020,8 hPa 0,0 l/m 0,0 km/h (0 Bft) N 0,00 h 0,5 UV-I 68 W/m 13,1 C 16,4 C 0,0 km/h (0 Bft)
17.07.2017 08:00 24,3 C 17,3 C 51 % 80 % 1021,0 hPa 0,0 l/m 0,0 km/h (0 Bft) N 0,32 h 0,9 UV-I 145 W/m 13,8 C 17,3 C 0,0 km/h (0 Bft)
17.07.2017 09:00 24,0 C 18,9 C 53 % 79 % 1020,9 hPa 0,0 l/m 0,2 km/h (0 Bft) S-SO 1,00 h 2,2 UV-I 329 W/m 15,1 C 18,9 C 0,8 km/h (0 Bft)
17.07.2017 10:00 24,1 C 20,3 C 54 % 74 % 1020,7 hPa 0,0 l/m 1,3 km/h (1 Bft) W-SW 1,00 h 3,0 UV-I 372 W/m 15,5 C 20,3 C 3,5 km/h (1 Bft)
17.07.2017 11:00 24,3 C 21,6 C 54 % 70 % 1020,5 hPa 0,0 l/m 1,1 km/h (0 Bft) S-SW 1,00 h 4,6 UV-I 543 W/m 15,8 C 21,6 C 3,0 km/h (1 Bft)
17.07.2017 12:00 24,6 C 22,5 C 54 % 65 % 1020,2 hPa 0,0 l/m 1,1 km/h (1 Bft) NW 1,00 h 4,1 UV-I 408 W/m 15,6 C 22,5 C 2,8 km/h (1 Bft)
17.07.2017 13:00 24,8 C 22,7 C 54 % 65 % 1020,0 hPa 0,0 l/m 0,7 km/h (0 Bft) SO 1,00 h 4,2 UV-I 437 W/m 15,8 C 22,7 C 2,3 km/h (1 Bft)
17.07.2017 14:00 24,9 C 22,6 C 54 % 65 % 1019,9 hPa 0,0 l/m 3,8 km/h (1 Bft) W 1,00 h 2,5 UV-I 254 W/m 15,6 C 22,5 C 7,3 km/h (2 Bft)
17.07.2017 15:00 25,0 C 22,6 C 54 % 67 % 1019,7 hPa 0,0 l/m 4,5 km/h (1 Bft) W 1,00 h 3,0 UV-I 312 W/m 16,1 C 22,5 C 8,8 km/h (2 Bft)
17.07.2017 16:00 25,1 C 22,5 C 54 % 67 % 1019,5 hPa 0,0 l/m 0,7 km/h (0 Bft) W 0,77 h 2,2 UV-I 244 W/m 16,1 C 22,4 C 2,0 km/h (1 Bft)
17.07.2017 17:00 25,1 C 23,2 C 54 % 64 % 1019,2 hPa 0,0 l/m 0,8 km/h (0 Bft) W 1,00 h 1,6 UV-I 291 W/m 16,0 C 23,2 C 2,2 km/h (1 Bft)
17.07.2017 18:00 25,2 C 21,8 C 55 % 71 % 1019,1 hPa 0,0 l/m 4,6 km/h (1 Bft) N-NO 0,08 h 0,7 UV-I 100 W/m 16,4 C 21,6 C 9,7 km/h (2 Bft)
17.07.2017 19:00 25,3 C 20,8 C 55 % 74 % 1019,2 hPa 0,0 l/m 1,8 km/h (1 Bft) N 0,00 h 0,6 UV-I 53 W/m 16,0 C 20,8 C 4,7 km/h (1 Bft)
17.07.2017 20:00 25,2 C 19,7 C 55 % 78 % 1019,4 hPa 0,0 l/m 0,0 km/h (0 Bft) N 0,00 h 0,0 UV-I 18 W/m 15,7 C 19,7 C 0,0 km/h (0 Bft)
17.07.2017 21:00 25,2 C 18,5 C 55 % 83 % 1019,9 hPa 0,0 l/m 0,1 km/h (0 Bft) N-NW 0,00 h 0,0 UV-I 5 W/m 15,6 C 18,5 C 0,5 km/h (0 Bft)
17.07.2017 22:00 25,0 C 17,7 C 56 % 87 % 1020,1 hPa 0,0 l/m 0,0 km/h (0 Bft) N 0,00 h 0,0 UV-I 0 W/m 15,5 C 17,7 C 0,1 km/h (0 Bft)
17.07.2017 23:00 25,0 C 16,6 C 56 % 91 % 1020,2 hPa 0,0 l/m 0,0 km/h (0 Bft) N 0,00 h 0,0 UV-I 0 W/m 15,0 C 16,6 C 0,0 km/h (0 Bft)
18.07.2017 00:00 24,9 C 15,6 C 56 % 94 % 1020,3 hPa 0,0 l/m 0,0 km/h (0 Bft) N 0,00 h 0,0 UV-I 0 W/m 14,5 C 15,6 C 0,0 km/h (0 Bft)
18.07.2017 01:00 24,8 C 15,2 C 57 % 94 % 1020,0 hPa 0,0 l/m 0,0 km/h (0 Bft) N 0,00 h 0,0 UV-I 0 W/m 14,2 C 15,2 C 0,0 km/h (0 Bft)
18.07.2017 02:00 24,7 C 14,9 C 56 % 94 % 1020,1 hPa 0,0 l/m 0,0 km/h (0 Bft) N 0,00 h 0,0 UV-I 0 W/m 14,0 C 14,9 C 0,2 km/h (0 Bft)
18.07.2017 03:00 24,7 C 14,3 C 56 % 95 % 1019,8 hPa 0,0 l/m 0,0 km/h (0 Bft) N 0,00 h 0,0 UV-I 0 W/m 13,6 C 14,3 C 0,0 km/h (0 Bft)
18.07.2017 04:00 24,7 C 14,4 C 56 % 96 % 1019,7 hPa 0,0 l/m 0,0 km/h (0 Bft) N 0,00 h 0,0 UV-I 0 W/m 13,7 C 14,4 C 0,2 km/h (0 Bft)
18.07.2017 05:00 24,6 C 14,9 C 56 % 95 % 1019,7 hPa 0,0 l/m 0,1 km/h (0 Bft) O-NO 0,00 h 0,0 UV-I 8 W/m 14,2 C 14,9 C 0,7 km/h (0 Bft)
18.07.2017 06:00 24,6 C 14,5 C 56 % 95 % 1019,7 hPa 0,0 l/m 0,1 km/h (0 Bft) NO 0,00 h 0,0 UV-I 24 W/m 13,8 C 14,5 C 0,3 km/h (0 Bft)
18.07.2017 07:00 24,8 C 16,5 C 57 % 93 % 1019,8 hPa 0,0 l/m 0,3 km/h (0 Bft) O-NO 0,42 h 0,8 UV-I 128 W/m 15,3 C 16,5 C 1,4 km/h (1 Bft)
18.07.2017 08:00 24,9 C 18,8 C 57 % 85 % 1019,7 hPa 0,0 l/m 1,4 km/h (1 Bft) O 0,98 h 1,5 UV-I 361 W/m 16,2 C 18,8 C 3,7 km/h (1 Bft)
18.07.2017 09:00 24,9 C 20,5 C 56 % 79 % 1019,6 hPa 0,0 l/m 1,3 km/h (1 Bft) O-NO 1,00 h 2,6 UV-I 514 W/m 16,7 C 20,5 C 4,7 km/h (1 Bft)
18.07.2017 10:00 24,9 C 21,1 C 57 % 76 % 1019,4 hPa 0,0 l/m 1,1 km/h (1 Bft) SO 1,00 h 3,3 UV-I 453 W/m 16,7 C 21,1 C 3,9 km/h (1 Bft)
18.07.2017 11:00 25,1 C 23,1 C 57 % 71 % 1019,1 hPa 0,0 l/m 0,7 km/h (0 Bft) O-NO 1,00 h 5,5 UV-I 819 W/m 17,5 C 23,1 C 2,9 km/h (1 Bft)
18.07.2017 12:00 25,3 C 24,6 C 57 % 65 % 1018,8 hPa 0,0 l/m 0,9 km/h (0 Bft) S-SO 1,00 h 6,7 UV-I 901 W/m 17,5 C 24,6 C 3,2 km/h (1 Bft)
18.07.2017 13:00 25,3 C 25,4 C 57 % 60 % 1018,2 hPa 0,0 l/m 1,0 km/h (0 Bft) SO 1,00 h 6,7 UV-I 872 W/m 16,9 C 25,4 C 3,7 km/h (1 Bft)
18.07.2017 14:00 25,3 C 26,1 C 57 % 57 % 1017,6 hPa 0,0 l/m 1,6 km/h (1 Bft) N-NO 1,00 h 5,2 UV-I 691 W/m 16,9 C 26,1 C 4,3 km/h (1 Bft)
18.07.2017 15:00 25,3 C 25,8 C 57 % 57 % 1017,2 hPa 0,0 l/m 1,9 km/h (1 Bft) N-NO 0,95 h 3,7 UV-I 543 W/m 16,6 C 25,8 C 4,6 km/h (1 Bft)
18.07.2017 16:00 25,3 C 25,5 C 57 % 59 % 1016,7 hPa 0,0 l/m 1,6 km/h (1 Bft) N-NO 1,00 h 2,9 UV-I 447 W/m 16,8 C 25,5 C 4,5 km/h (1 Bft)
18.07.2017 17:00 25,4 C 25,9 C 57 % 56 % 1016,1 hPa 0,0 l/m 1,6 km/h (1 Bft) N-NO 0,95 h 2,1 UV-I 441 W/m 16,4 C 25,9 C 3,9 km/h (1 Bft)
18.07.2017 18:00 25,4 C 25,5 C 57 % 57 % 1015,7 hPa 0,0 l/m 2,2 km/h (1 Bft) N-NO 0,17 h 1,0 UV-I 109 W/m 16,3 C 25,4 C 5,5 km/h (1 Bft)
18.07.2017 19:00 25,4 C 24,5 C 56 % 59 % 1015,6 hPa 0,0 l/m 0,9 km/h (0 Bft) O-NO 0,00 h 0,6 UV-I 48 W/m 15,9 C 24,5 C 3,4 km/h (1 Bft)
18.07.2017 20:00 25,4 C 23,1 C 56 % 64 % 1015,5 hPa 0,0 l/m 0,1 km/h (0 Bft) NO 0,00 h 0,0 UV-I 22 W/m 15,9 C 23,1 C 0,5 km/h (0 Bft)
18.07.2017 21:00 25,3 C 21,5 C 56 % 70 % 1015,7 hPa 0,0 l/m 0,0 km/h (0 Bft) N 0,00 h 0,0 UV-I 6 W/m 15,7 C 21,5 C 0,0 km/h (0 Bft)
18.07.2017 22:00 25,2 C 20,2 C 56 % 74 % 1016,1 hPa 0,0 l/m 0,0 km/h (0 Bft) N 0,00 h 0,0 UV-I 0 W/m 15,4 C 20,2 C 0,0 km/h (0 Bft)
18.07.2017 23:00 25,1 C 19,6 C 56 % 76 % 1015,8 hPa 0,0 l/m 0,0 km/h (0 Bft) O-NO 0,00 h 0,0 UV-I 0 W/m 15,3 C 19,6 C 0,3 km/h (0 Bft)
19.07.2017 00:00 25,1 C 19,2 C 56 % 78 % 1015,4 hPa 0,0 l/m 0,2 km/h (0 Bft) O-NO 0,00 h 0,0 UV-I 0 W/m 15,2 C 19,2 C 2,1 km/h (1 Bft)
19.07.2017 01:00 25,1 C 18,7 C 56 % 80 % 1015,1 hPa 0,0 l/m 0,2 km/h (0 Bft) O-NO 0,00 h 0,0 UV-I 0 W/m 15,2 C 18,7 C 1,6 km/h (1 Bft)
19.07.2017 02:00 25,0 C 18,5 C 57 % 80 % 1014,8 hPa 0,0 l/m 0,1 km/h (0 Bft) O-NO 0,00 h 0,0 UV-I 0 W/m 15,0 C 18,5 C 0,9 km/h (0 Bft)
19.07.2017 03:00 24,9 C 18,1 C 56 % 81 % 1014,4 hPa 0,0 l/m 0,0 km/h (0 Bft) O-NO 0,00 h 0,0 UV-I 0 W/m 14,7 C 18,1 C 0,2 km/h (0 Bft)
19.07.2017 04:00 24,9 C 17,4 C 56 % 83 % 1014,1 hPa 0,0 l/m 0,0 km/h (0 Bft) N-NO 0,00 h 0,0 UV-I 0 W/m 14,4 C 17,4 C 0,5 km/h (0 Bft)
19.07.2017 05:00 25,0 C 16,9 C 57 % 85 % 1014,0 hPa 0,0 l/m 0,0 km/h (0 Bft) NO 0,00 h 0,0 UV-I 12 W/m 14,3 C 16,9 C 0,4 km/h (0 Bft)
19.07.2017 06:00 25,1 C 16,5 C 57 % 88 % 1014,3 hPa 0,0 l/m 0,0 km/h (0 Bft) NW 0,00 h 0,0 UV-I 45 W/m 14,4 C 16,5 C 0,1 km/h (0 Bft)
19.07.2017 07:00 25,2 C 18,9 C 57 % 83 % 1014,3 hPa 0,0 l/m 0,0 km/h (0 Bft) N 0,52 h 0,7 UV-I 184 W/m 15,9 C 18,9 C 0,0 km/h (0 Bft)
19.07.2017 08:00 25,3 C 21,5 C 57 % 75 % 1014,1 hPa 0,0 l/m 0,0 km/h (0 Bft) N 0,87 h 1,4 UV-I 337 W/m 16,9 C 21,5 C 0,0 km/h (0 Bft)
19.07.2017 09:00 25,4 C 23,8 C 57 % 67 % 1013,9 hPa 0,0 l/m 0,0 km/h (0 Bft) W-SW 1,00 h 2,4 UV-I 563 W/m 17,4 C 23,8 C 0,2 km/h (0 Bft)
19.07.2017 10:00 25,5 C 26,0 C 57 % 62 % 1013,7 hPa 0,0 l/m 0,7 km/h (0 Bft) S 1,00 h 3,9 UV-I 693 W/m 18,2 C 26,0 C 2,2 km/h (1 Bft)
19.07.2017 11:00 25,7 C 27,6 C 57 % 57 % 1013,3 hPa 0,0 l/m 0,7 km/h (0 Bft) S 1,00 h 5,2 UV-I 794 W/m 18,2 C 27,6 C 2,6 km/h (1 Bft)
19.07.2017 12:00 25,8 C 28,1 C 57 % 51 % 1012,8 hPa 0,0 l/m 1,1 km/h (1 Bft) S-SO 1,00 h 5,4 UV-I 754 W/m 17,0 C 28,1 C 3,5 km/h (1 Bft)
19.07.2017 13:00 25,7 C 28,2 C 57 % 49 % 1012,2 hPa 0,0 l/m 0,7 km/h (0 Bft) S-SO 0,97 h 4,8 UV-I 541 W/m 16,5 C 28,2 C 2,7 km/h (1 Bft)
19.07.2017 14:00 25,7 C 29,7 C 57 % 45 % 1011,8 hPa 0,0 l/m 3,3 km/h (1 Bft) S 0,92 h 5,1 UV-I 676 W/m 16,4 C 29,6 C 6,9 km/h (2 Bft)
19.07.2017 15:00 25,7 C 29,1 C 56 % 44 % 1011,3 hPa 0,0 l/m 1,6 km/h (1 Bft) S-SO 0,70 h 4,0 UV-I 517 W/m 15,7 C 29,1 C 3,7 km/h (1 Bft)
19.07.2017 16:00 25,8 C 30,1 C 56 % 41 % 1010,7 hPa 0,0 l/m 2,7 km/h (1 Bft) S-SW 0,93 h 3,2 UV-I 572 W/m 15,4 C 30,1 C 5,2 km/h (1 Bft)
19.07.2017 17:00 25,9 C 29,9 C 56 % 40 % 1010,0 hPa 0,0 l/m 3,3 km/h (1 Bft) S 0,95 h 2,0 UV-I 448 W/m 14,9 C 29,9 C 5,1 km/h (1 Bft)
19.07.2017 18:00 26,0 C 29,2 C 56 % 42 % 1009,5 hPa 0,0 l/m 2,1 km/h (1 Bft) S-SO 0,07 h 1,0 UV-I 89 W/m 14,8 C 29,2 C 4,2 km/h (1 Bft)
19.07.2017 19:00 26,0 C 28,7 C 56 % 42 % 1009,3 hPa 0,0 l/m 0,1 km/h (0 Bft) S-SO 0,00 h 0,0 UV-I 37 W/m 14,5 C 28,7 C 0,3 km/h (0 Bft)
19.07.2017 20:00 25,8 C 26,8 C 55 % 52 % 1009,4 hPa 0,0 l/m 0,0 km/h (0 Bft) N 0,00 h 0,0 UV-I 13 W/m 16,0 C 26,8 C 0,0 km/h (0 Bft)
19.07.2017 21:00 25,8 C 23,8 C 56 % 65 % 1009,3 hPa 0,0 l/m 0,0 km/h (0 Bft) N 0,00 h 0,0 UV-I 0 W/m 16,8 C 23,8 C 0,0 km/h (0 Bft)
19.07.2017 22:00 25,7 C 21,5 C 57 % 75 % 1009,4 hPa 0,0 l/m 0,0 km/h (0 Bft) N 0,00 h 0,0 UV-I 0 W/m 16,8 C 21,5 C 0,2 km/h (0 Bft)
19.07.2017 23:00 25,7 C 19,8 C 57 % 80 % 1009,5 hPa 0,0 l/m 0,0 km/h (0 Bft) N 0,00 h 0,0 UV-I 0 W/m 16,3 C 19,8 C 0,0 km/h (0 Bft)
20.07.2017 00:00 25,6 C 19,2 C 58 % 82 % 1009,6 hPa 0,0 l/m 4,1 km/h (1 Bft) N 0,00 h 0,0 UV-I 0 W/m 15,9 C 18,6 C 7,2 km/h (2 Bft)
20.07.2017 01:00 25,7 C 20,5 C 57 % 72 % 1010,3 hPa 0,0 l/m 5,6 km/h (1 Bft) N 0,00 h 0,0 UV-I 0 W/m 15,3 C 19,7 C 7,6 km/h (2 Bft)
20.07.2017 02:00 25,6 C 18,2 C 57 % 89 % 1012,7 hPa 6,0 l/m 9,4 km/h (2 Bft) NW 0,00 h 0,0 UV-I 0 W/m 16,3 C 16,8 C 16,2 km/h (3 Bft)
20.07.2017 03:00 25,5 C 16,7 C 58 % 94 % 1012,0 hPa 0,8 l/m 4,9 km/h (1 Bft) N 0,00 h 0,0 UV-I 0 W/m 15,7 C 15,7 C 7,5 km/h (2 Bft)
20.07.2017 04:00 25,7 C 16,5 C 57 % 95 % 1010,6 hPa 0,0 l/m 0,0 km/h (0 Bft) N 0,00 h 0,0 UV-I 0 W/m 15,6 C 16,5 C 0,0 km/h (0 Bft)
20.07.2017 05:00 25,7 C 16,3 C 57 % 95 % 1009,5 hPa 0,0 l/m 0,0 km/h (0 Bft) N 0,00 h 0,0 UV-I 10 W/m 15,5 C 16,3 C 0,0 km/h (0 Bft)
20.07.2017 06:00 25,7 C 16,2 C 57 % 95 % 1009,5 hPa 0,0 l/m 0,0 km/h (0 Bft) N 0,00 h 0,0 UV-I 32 W/m 15,4 C 16,2 C 0,0 km/h (0 Bft)
20.07.2017 07:00 25,6 C 17,2 C 58 % 94 % 1009,7 hPa 0,0 l/m 0,0 km/h (0 Bft) N 0,50 h 0,8 UV-I 160 W/m 16,2 C 17,2 C 0,0 km/h (0 Bft)
20.07.2017 08:00 25,6 C 19,5 C 58 % 88 % 1010,3 hPa 0,0 l/m 0,8 km/h (0 Bft) SW 0,95 h 1,3 UV-I 286 W/m 17,5 C 19,5 C 2,1 km/h (1 Bft)
20.07.2017 09:00 25,2 C 20,9 C 60 % 84 % 1010,4 hPa 0,0 l/m 2,1 km/h (1 Bft) S 1,00 h 2,4 UV-I 493 W/m 18,0 C 20,8 C 4,4 km/h (1 Bft)
20.07.2017 10:00 25,2 C 23,5 C 60 % 73 % 1009,9 hPa 0,0 l/m 4,5 km/h (1 Bft) SW 1,00 h 3,8 UV-I 632 W/m 18,3 C 23,3 C 8,6 km/h (2 Bft)
20.07.2017 11:00 25,6 C 25,3 C 59 % 64 % 1009,6 hPa 0,0 l/m 4,5 km/h (1 Bft) SW 1,00 h 5,0 UV-I 708 W/m 18,1 C 25,2 C 10,4 km/h (2 Bft)
20.07.2017 12:00 25,8 C 26,5 C 59 % 59 % 1009,4 hPa 0,0 l/m 6,6 km/h (2 Bft) W-SW 1,00 h 6,1 UV-I 874 W/m 17,8 C 26,2 C 12,9 km/h (3 Bft)
20.07.2017 13:00 25,8 C 25,5 C 58 % 62 % 1009,6 hPa 0,0 l/m 7,4 km/h (2 Bft) W-SW 1,00 h 3,6 UV-I 397 W/m 17,5 C 25,0 C 12,6 km/h (3 Bft)
20.07.2017 14:00 25,9 C 24,2 C 58 % 65 % 1010,0 hPa 0,0 l/m 5,4 km/h (1 Bft) W-SW 1,00 h 3,4 UV-I 416 W/m 17,1 C 24,0 C 10,6 km/h (2 Bft)
20.07.2017 15:00 25,9 C 25,4 C 58 % 60 % 1009,9 hPa 0,0 l/m 7,6 km/h (2 Bft) W-SW 1,00 h 3,9 UV-I 565 W/m 17,0 C 25,0 C 14,0 km/h (3 Bft)
20.07.2017 16:00 25,9 C 24,7 C 58 % 61 % 1010,0 hPa 0,0 l/m 9,7 km/h (2 Bft) W-SW 1,00 h 2,8 UV-I 421 W/m 16,6 C 23,9 C 17,0 km/h (3 Bft)
20.07.2017 17:00 25,9 C 23,0 C 58 % 68 % 1010,3 hPa 0,0 l/m 6,4 km/h (2 Bft) W 0,32 h 0,9 UV-I 115 W/m 16,9 C 22,6 C 12,5 km/h (3 Bft)
20.07.2017 18:00 26,0 C 21,5 C 58 % 73 % 1010,5 hPa 0,0 l/m 4,6 km/h (1 Bft) W 0,22 h 0,6 UV-I 102 W/m 16,3 C 21,3 C 9,6 km/h (2 Bft)
20.07.2017 19:00 26,0 C 21,0 C 58 % 74 % 1010,9 hPa 0,0 l/m 5,6 km/h (1 Bft) W-SW 0,00 h 0,6 UV-I 102 W/m 16,2 C 20,5 C 11,1 km/h (2 Bft)
20.07.2017 20:00 25,9 C 20,3 C 57 % 77 % 1011,5 hPa 0,0 l/m 1,6 km/h (1 Bft) W-SW 0,00 h 0,0 UV-I 34 W/m 16,0 C 20,3 C 3,7 km/h (1 Bft)
20.07.2017 21:00 25,9 C 19,3 C 57 % 79 % 1012,2 hPa 0,0 l/m 0,0 km/h (0 Bft) SW 0,00 h 0,0 UV-I 6 W/m 15,6 C 19,3 C 0,2 km/h (0 Bft)
20.07.2017 22:00 25,9 C 18,4 C 58 % 83 % 1012,3 hPa 0,0 l/m 0,1 km/h (0 Bft) W-SW 0,00 h 0,0 UV-I 0 W/m 15,4 C 18,4 C 0,6 km/h (0 Bft)
20.07.2017 23:00 25,9 C 17,6 C 58 % 86 % 1012,5 hPa 0,0 l/m 0,0 km/h (0 Bft) SW 0,00 h 0,0 UV-I 0 W/m 15,2 C 17,6 C 0,2 km/h (0 Bft)
21.07.2017 00:00 25,8 C 16,8 C 58 % 89 % 1012,9 hPa 0,0 l/m 0,0 km/h (0 Bft) N 0,00 h 0,0 UV-I 0 W/m 15,0 C 16,8 C 0,0 km/h (0 Bft)
21.07.2017 01:00 25,7 C 15,6 C 58 % 92 % 1013,2 hPa 0,0 l/m 0,0 km/h (0 Bft) N 0,00 h 0,0 UV-I 0 W/m 14,4 C 15,6 C 0,0 km/h (0 Bft)
21.07.2017 02:00 25,7 C 15,2 C 58 % 93 % 1013,2 hPa 0,0 l/m 0,0 km/h (0 Bft) N 0,00 h 0,0 UV-I 0 W/m 14,1 C 15,2 C 0,0 km/h (0 Bft)
21.07.2017 03:00 25,6 C 14,5 C 57 % 95 % 1013,2 hPa 0,0 l/m 0,0 km/h (0 Bft) N 0,00 h 0,0 UV-I 0 W/m 13,6 C 14,5 C 0,0 km/h (0 Bft)
21.07.2017 04:00 25,6 C 13,7 C 57 % 95 % 1013,4 hPa 0,0 l/m 0,0 km/h (0 Bft) N 0,00 h 0,0 UV-I 0 W/m 13,0 C 13,7 C 0,0 km/h (0 Bft)
21.07.2017 05:00 25,6 C 13,5 C 57 % 96 % 1013,5 hPa 0,0 l/m 0,0 km/h (0 Bft) N 0,00 h 0,0 UV-I 5 W/m 12,8 C 13,5 C 0,0 km/h (0 Bft)
21.07.2017 06:00 25,5 C 13,3 C 57 % 96 % 1013,9 hPa 0,0 l/m 0,0 km/h (0 Bft) N 0,00 h 0,0 UV-I 22 W/m 12,7 C 13,3 C 0,0 km/h (0 Bft)
21.07.2017 07:00 25,7 C 15,6 C 57 % 95 % 1013,9 hPa 0,0 l/m 0,0 km/h (0 Bft) N 0,27 h 0,8 UV-I 105 W/m 14,7 C 15,6 C 0,0 km/h (0 Bft)
21.07.2017 08:00 26,0 C 18,9 C 57 % 87 % 1014,0 hPa 0,0 l/m 0,0 km/h (0 Bft) N 1,00 h 1,5 UV-I 414 W/m 16,7 C 18,9 C 0,1 km/h (0 Bft)
21.07.2017 09:00 25,7 C 21,1 C 57 % 76 % 1014,2 hPa 0,0 l/m 0,1 km/h (0 Bft) W-NW 1,00 h 2,4 UV-I 579 W/m 16,6 C 21,1 C 0,3 km/h (0 Bft)
21.07.2017 10:00 25,4 C 23,5 C 56 % 65 % 1014,1 hPa 0,0 l/m 0,3 km/h (0 Bft) W-NW 1,00 h 4,0 UV-I 716 W/m 16,4 C 23,5 C 1,1 km/h (1 Bft)
21.07.2017 11:00 25,6 C 24,0 C 54 % 60 % 1013,9 hPa 0,0 l/m 0,6 km/h (0 Bft) SO 0,90 h 4,1 UV-I 580 W/m 15,8 C 24,0 C 1,8 km/h (1 Bft)
21.07.2017 12:00 25,8 C 24,1 C 54 % 58 % 1013,6 hPa 0,0 l/m 0,3 km/h (0 Bft) W-SW 1,00 h 3,8 UV-I 398 W/m 15,4 C 24,1 C 1,2 km/h (1 Bft)
21.07.2017 13:00 25,8 C 25,8 C 54 % 53 % 1013,2 hPa 0,0 l/m 1,4 km/h (1 Bft) S 1,00 h 5,8 UV-I 831 W/m 15,5 C 25,8 C 3,7 km/h (1 Bft)
21.07.2017 14:00 25,9 C 26,5 C 52 % 50 % 1012,9 hPa 0,0 l/m 1,6 km/h (1 Bft) S 1,00 h 5,2 UV-I 775 W/m 15,1 C 26,5 C 4,4 km/h (1 Bft)
21.07.2017 15:00 26,1 C 26,2 C 52 % 51 % 1012,6 hPa 0,0 l/m 1,3 km/h (1 Bft) W-NW 0,92 h 3,7 UV-I 426 W/m 15,2 C 26,2 C 3,7 km/h (1 Bft)
21.07.2017 16:00 26,1 C 26,5 C 53 % 50 % 1012,1 hPa 0,0 l/m 0,5 km/h (0 Bft) N-NO 1,00 h 3,1 UV-I 562 W/m 15,2 C 26,5 C 1,9 km/h (1 Bft)
21.07.2017 17:00 26,2 C 26,6 C 53 % 47 % 1011,5 hPa 0,0 l/m 0,4 km/h (0 Bft) N-NW 1,00 h 2,1 UV-I 465 W/m 14,4 C 26,6 C 1,5 km/h (1 Bft)
21.07.2017 18:00 26,3 C 26,0 C 54 % 50 % 1011,1 hPa 0,0 l/m 1,3 km/h (1 Bft) O-NO 0,08 h 1,0 UV-I 81 W/m 14,6 C 26,0 C 3,7 km/h (1 Bft)
21.07.2017 19:00 26,2 C 25,3 C 54 % 52 % 1010,7 hPa 0,0 l/m 0,7 km/h (0 Bft) N-NO 0,00 h 0,0 UV-I 42 W/m 14,7 C 25,3 C 2,7 km/h (1 Bft)
21.07.2017 20:00 26,2 C 24,0 C 54 % 58 % 1010,9 hPa 0,0 l/m 0,3 km/h (0 Bft) N-NO 0,00 h 0,0 UV-I 25 W/m 15,2 C 24,0 C 1,0 km/h (0 Bft)
21.07.2017 21:00 26,2 C 22,2 C 55 % 64 % 1011,1 hPa 0,0 l/m 0,1 km/h (0 Bft) N-NO 0,00 h 0,0 UV-I 5 W/m 15,0 C 22,2 C 0,5 km/h (0 Bft)
21.07.2017 22:00 26,2 C 20,5 C 55 % 69 % 1010,8 hPa 0,0 l/m 0,0 km/h (0 Bft) N 0,00 h 0,0 UV-I 0 W/m 14,6 C 20,5 C 0,1 km/h (0 Bft)
21.07.2017 23:00 26,1 C 20,7 C 55 % 65 % 1010,6 hPa 0,0 l/m 0,3 km/h (0 Bft) O-NO 0,00 h 0,0 UV-I 0 W/m 13,9 C 20,7 C 2,0 km/h (1 Bft)
22.07.2017 00:00 25,9 C 20,5 C 54 % 65 % 1010,8 hPa 0,0 l/m 1,6 km/h (1 Bft) O-NO 0,00 h 0,0 UV-I 0 W/m 13,7 C 20,5 C 4,3 km/h (1 Bft)
22.07.2017 01:00 25,8 C 19,9 C 54 % 67 % 1010,3 hPa 0,0 l/m 2,2 km/h (1 Bft) O-NO 0,00 h 0,0 UV-I 0 W/m 13,4 C 19,9 C 5,8 km/h (2 Bft)
22.07.2017 02:00 25,8 C 19,1 C 54 % 69 % 1010,0 hPa 0,0 l/m 0,2 km/h (0 Bft) O 0,00 h 0,0 UV-I 0 W/m 13,3 C 19,1 C 0,7 km/h (0 Bft)
22.07.2017 03:00 25,7 C 18,1 C 54 % 74 % 1010,5 hPa 0,0 l/m 0,0 km/h (0 Bft) W 0,00 h 0,0 UV-I 0 W/m 13,4 C 18,1 C 0,2 km/h (0 Bft)
22.07.2017 04:00 25,7 C 17,7 C 54 % 76 % 1010,7 hPa 0,0 l/m 0,3 km/h (0 Bft) O 0,00 h 0,0 UV-I 0 W/m 13,4 C 17,7 C 1,2 km/h (1 Bft)
22.07.2017 05:00 25,7 C 15,9 C 54 % 85 % 1010,9 hPa 0,0 l/m 0,0 km/h (0 Bft) N 0,00 h 0,0 UV-I 14 W/m 13,3 C 15,9 C 0,0 km/h (0 Bft)
22.07.2017 06:00 25,7 C 16,4 C 54 % 85 % 1011,3 hPa 0,0 l/m 0,0 km/h (0 Bft) O-NO 0,00 h 0,0 UV-I 48 W/m 13,9 C 16,4 C 0,2 km/h (0 Bft)
22.07.2017 07:00 25,9 C 17,8 C 54 % 82 % 1011,5 hPa 0,0 l/m 0,0 km/h (0 Bft) N 0,20 h 0,6 UV-I 106 W/m 14,7 C 17,8 C 0,1 km/h (0 Bft)
22.07.2017 08:00 26,1 C 19,3 C 55 % 78 % 1011,9 hPa 0,0 l/m 2,5 km/h (1 Bft) S 0,28 h 0,7 UV-I 148 W/m 15,5 C 19,2 C 4,9 km/h (1 Bft)
22.07.2017 09:00 26,0 C 20,3 C 55 % 78 % 1012,1 hPa 0,0 l/m 2,1 km/h (1 Bft) S 1,00 h 1,9 UV-I 307 W/m 16,3 C 20,2 C 5,2 km/h (1 Bft)
22.07.2017 10:00 25,9 C 21,5 C 55 % 72 % 1012,3 hPa 0,0 l/m 4,9 km/h (1 Bft) S 1,00 h 2,4 UV-I 322 W/m 16,3 C 21,2 C 8,7 km/h (2 Bft)
22.07.2017 11:00 25,8 C 23,0 C 55 % 68 % 1012,4 hPa 0,0 l/m 4,7 km/h (1 Bft) S 1,00 h 4,5 UV-I 551 W/m 16,7 C 22,9 C 9,2 km/h (2 Bft)
22.07.2017 12:00 26,0 C 24,8 C 55 % 61 % 1012,5 hPa 0,0 l/m 5,9 km/h (2 Bft) W 1,00 h 4,4 UV-I 558 W/m 16,9 C 24,6 C 10,7 km/h (2 Bft)
22.07.2017 13:00 26,3 C 25,2 C 55 % 59 % 1012,6 hPa 0,0 l/m 6,5 km/h (2 Bft) W-SW 1,00 h 6,0 UV-I 702 W/m 16,7 C 24,9 C 12,8 km/h (3 Bft)
22.07.2017 14:00 26,4 C 25,6 C 55 % 59 % 1012,6 hPa 0,0 l/m 5,2 km/h (1 Bft) W-SW 0,98 h 5,5 UV-I 765 W/m 17,1 C 25,5 C 10,8 km/h (2 Bft)
22.07.2017 15:00 26,6 C 26,2 C 54 % 54 % 1012,3 hPa 0,0 l/m 4,7 km/h (1 Bft) W 0,95 h 4,7 UV-I 669 W/m 16,1 C 26,1 C 10,4 km/h (2 Bft)
22.07.2017 16:00 26,8 C 26,8 C 53 % 52 % 1011,9 hPa 0,0 l/m 3,8 km/h (1 Bft) W-SW 1,00 h 3,6 UV-I 638 W/m 16,0 C 26,7 C 8,3 km/h (2 Bft)
22.07.2017 17:00 27,0 C 26,3 C 52 % 52 % 1011,9 hPa 0,0 l/m 3,9 km/h (1 Bft) W-SW 0,80 h 1,9 UV-I 386 W/m 15,7 C 26,2 C 8,5 km/h (2 Bft)
22.07.2017 18:00 26,9 C 25,2 C 53 % 54 % 1012,1 hPa 0,0 l/m 2,5 km/h (1 Bft) W-SW 0,08 h 0,8 UV-I 117 W/m 15,3 C 25,2 C 5,8 km/h (2 Bft)
22.07.2017 19:00 26,8 C 24,7 C 53 % 57 % 1012,1 hPa 0,0 l/m 1,0 km/h (0 Bft) W 0,00 h 0,6 UV-I 94 W/m 15,6 C 24,7 C 2,6 km/h (1 Bft)
22.07.2017 20:00 26,8 C 23,8 C 53 % 61 % 1012,3 hPa 0,0 l/m 0,0 km/h (0 Bft) N 0,00 h 0,0 UV-I 24 W/m 15,8 C 23,8 C 0,0 km/h (0 Bft)
22.07.2017 21:00 26,6 C 21,7 C 54 % 72 % 1012,6 hPa 0,0 l/m 0,0 km/h (0 Bft) N 0,00 h 0,0 UV-I 5 W/m 16,5 C 21,7 C 0,0 km/h (0 Bft)
22.07.2017 22:00 26,6 C 19,8 C 55 % 81 % 1012,7 hPa 0,0 l/m 0,0 km/h (0 Bft) N 0,00 h 0,0 UV-I 0 W/m 16,4 C 19,8 C 0,0 km/h (0 Bft)
22.07.2017 23:00 26,7 C 18,0 C 55 % 86 % 1012,6 hPa 0,0 l/m 0,0 km/h (0 Bft) N 0,00 h 0,0 UV-I 0 W/m 15,6 C 18,0 C 0,0 km/h (0 Bft)
23.07.2017 00:00 26,5 C 16,9 C 55 % 88 % 1012,5 hPa 0,0 l/m 0,0 km/h (0 Bft) N 0,00 h 0,0 UV-I 0 W/m 14,9 C 16,9 C 0,0 km/h (0 Bft)
23.07.2017 01:00 26,2 C 16,0 C 55 % 91 % 1012,3 hPa 0,0 l/m 0,0 km/h (0 Bft) N 0,00 h 0,0 UV-I 0 W/m 14,5 C 16,0 C 0,0 km/h (0 Bft)
23.07.2017 02:00 26,1 C 15,3 C 55 % 92 % 1012,2 hPa 0,0 l/m 0,0 km/h (0 Bft) N 0,00 h 0,0 UV-I 0 W/m 14,0 C 15,3 C 0,0 km/h (0 Bft)
23.07.2017 03:00 26,0 C 15,6 C 55 % 92 % 1012,3 hPa 0,0 l/m 0,0 km/h (0 Bft) N 0,00 h 0,0 UV-I 0 W/m 14,3 C 15,6 C 0,0 km/h (0 Bft)
23.07.2017 04:00 25,9 C 16,0 C 55 % 91 % 1012,7 hPa 0,0 l/m 0,0 km/h (0 Bft) N 0,00 h 0,0 UV-I 0 W/m 14,6 C 16,0 C 0,0 km/h (0 Bft)
23.07.2017 05:00 25,9 C 17,0 C 55 % 87 % 1013,3 hPa 0,0 l/m 0,4 km/h (0 Bft) S-SW 0,00 h 0,0 UV-I 6 W/m 14,9 C 17,0 C 2,0 km/h (1 Bft)
23.07.2017 06:00 25,6 C 17,5 C 55 % 85 % 1013,9 hPa 0,0 l/m 1,9 km/h (1 Bft) S-SW 0,00 h 0,0 UV-I 26 W/m 15,0 C 17,4 C 6,2 km/h (2 Bft)
23.07.2017 07:00 25,4 C 16,8 C 55 % 89 % 1014,3 hPa 0,6 l/m 1,3 km/h (1 Bft) S 0,00 h 0,0 UV-I 36 W/m 15,0 C 16,8 C 4,0 km/h (1 Bft)
23.07.2017 08:00 25,5 C 16,5 C 56 % 93 % 1014,3 hPa 0,4 l/m 1,5 km/h (1 Bft) S 0,00 h 0,7 UV-I 68 W/m 15,4 C 16,4 C 3,7 km/h (1 Bft)
23.07.2017 09:00 25,1 C 17,7 C 58 % 92 % 1014,4 hPa 0,0 l/m 7,0 km/h (2 Bft) S 0,93 h 1,8 UV-I 317 W/m 16,3 C 17,1 C 13,8 km/h (3 Bft)
23.07.2017 10:00 25,3 C 18,2 C 58 % 88 % 1014,7 hPa 0,0 l/m 5,7 km/h (1 Bft) SW 0,65 h 2,4 UV-I 296 W/m 16,1 C 17,7 C 12,7 km/h (3 Bft)
23.07.2017 11:00 25,6 C 18,6 C 57 % 83 % 1014,9 hPa 0,0 l/m 5,7 km/h (1 Bft) S-SW 1,00 h 2,5 UV-I 296 W/m 15,6 C 18,1 C 12,6 km/h (3 Bft)
23.07.2017 12:00 25,3 C 18,3 C 55 % 80 % 1015,0 hPa 0,0 l/m 4,4 km/h (1 Bft) S 1,00 h 2,6 UV-I 282 W/m 14,8 C 18,1 C 9,5 km/h (2 Bft)
23.07.2017 13:00 25,2 C 20,6 C 53 % 70 % 1014,8 hPa 0,0 l/m 5,6 km/h (1 Bft) SW 1,00 h 5,1 UV-I 667 W/m 14,9 C 20,3 C 11,5 km/h (2 Bft)
23.07.2017 14:00 25,3 C 20,4 C 54 % 70 % 1014,7 hPa 0,0 l/m 5,6 km/h (1 Bft) S 0,93 h 2,5 UV-I 236 W/m 14,6 C 20,1 C 11,1 km/h (2 Bft)
23.07.2017 15:00 25,4 C 21,6 C 51 % 58 % 1014,5 hPa 0,0 l/m 9,0 km/h (2 Bft) SW 1,00 h 3,0 UV-I 366 W/m 13,0 C 20,6 C 17,3 km/h (3 Bft)
23.07.2017 16:00 25,5 C 21,7 C 50 % 57 % 1014,2 hPa 0,0 l/m 7,6 km/h (2 Bft) W-SW 1,00 h 2,4 UV-I 374 W/m 12,8 C 21,1 C 16,3 km/h (3 Bft)
23.07.2017 17:00 25,5 C 21,6 C 48 % 54 % 1013,9 hPa 0,0 l/m 8,8 km/h (2 Bft) W-SW 0,82 h 1,8 UV-I 356 W/m 11,8 C 20,7 C 16,6 km/h (3 Bft)
23.07.2017 18:00 25,7 C 20,8 C 47 % 52 % 1013,8 hPa 0,0 l/m 8,2 km/h (2 Bft) W-SW 0,07 h 0,9 UV-I 106 W/m 10,4 C 20,0 C 16,3 km/h (3 Bft)
23.07.2017 19:00 25,8 C 19,8 C 47 % 53 % 1014,0 hPa 0,0 l/m 4,8 km/h (1 Bft) W-SW 0,00 h 0,6 UV-I 49 W/m 10,0 C 19,5 C 10,6 km/h (2 Bft)
23.07.2017 20:00 25,8 C 19,1 C 47 % 54 % 1014,2 hPa 0,0 l/m 3,2 km/h (1 Bft) W 0,00 h 0,0 UV-I 25 W/m 9,6 C 19,0 C 7,3 km/h (2 Bft)
23.07.2017 21:00 26,0 C 17,8 C 49 % 60 % 1014,4 hPa 0,0 l/m 0,0 km/h (0 Bft) N 0,00 h 0,0 UV-I 0 W/m 10,0 C 17,8 C 0,0 km/h (0 Bft)
23.07.2017 22:00 26,1 C 16,2 C 49 % 67 % 1014,7 hPa 0,0 l/m 0,0 km/h (0 Bft) N 0,00 h 0,0 UV-I 0 W/m 10,0 C 16,2 C 0,0 km/h (0 Bft)
23.07.2017 23:00 25,9 C 14,1 C 49 % 77 % 1014,6 hPa 0,0 l/m 0,0 km/h (0 Bft) N 0,00 h 0,0 UV-I 0 W/m 10,1 C 14,1 C 0,0 km/h (0 Bft)
Min-Datum _ 17.07.17 17.07.17 23.07.17 19.07.17 19.07.17 - 17.07.17 - - - - 23.07.17 20.07.17 17.07.17
_ Min-Zeit 09:10 07:22 19:53 16:34 19:43 - 00:00 - - - - 20:34 03:08 00:00
Minimum _ 23,9 C 0,0 C 46 % 37 % 1009,1 hPa - 0,0 km/h (0 Bft) - - - - 9,2 C 12,2 C 0,0 km/h (0 Bft)
Max-Datum _ 22.07.17 19.07.17 20.07.17 21.07.17 17.07.17 20.07.17 20.07.17 - 17.07.17 22.07.17 22.07.17 19.07.17 19.07.17 20.07.17
_ Max-Zeit 17:47 16:52 09:50 06:49 00:00 02:00 02:06 - 09:14 13:20 13:22 11:01 16:53 02:09
Maximum _ 27,1 C 30,6 C 61 % 97 % 1021,8 hPa 6,0 l/m 25,7 km/h
NW (4 Bft)
- 0,03 h 7,8 UV-I 1139 W/m 20,1 C 30,6 C 35,4 km/h
NW (5 Bft)
Durchschnitt _ 25,5 C 20,6 C 55 % 73 % 1014,3 hPa #7,8 l/m 1,7 km/h (1 Bft) W-SW #67:24 h 2,8 UV-I 313 W/m 15,2 C 20,5 C 3,7 km/h (1 Bft)